Flight Track Log - Related Links

Times and Time Zones

All times are in EDT time to prevent confusion due to time zone crossing. See the SLI647 flight status page for this flight to view local times or setup timezone preferences in your user account.

Time Position Orientation Groundspeed Altitude Reporting Facility
EDT Latitude Longitude Course Direction KTS MPH feet Rate Location/Type
Sun 11:27:00 PM 19.8311 -96.8913 79° East  Level Estimated
Sun 11:28:00 PM 19.8853 -96.5789 79° East  Level Estimated
Sun 11:29:00 PM 19.9390 -96.2663 80° East  Level Estimated
Sun 11:30:00 PM 19.9922 -95.9535 80° East  Level Estimated
Sun 11:31:00 PM 20.0448 -95.6404 80° East  Level Estimated
Sun 11:32:00 PM 20.0968 -95.3272 80° East  Level Estimated
Sun 11:33:00 PM 20.1483 -95.0137 80° East  Level Estimated
Sun 11:34:00 PM 20.1993 -94.7001 80° East  Level Estimated
Sun 11:35:00 PM 20.2496 -94.3862 80° East  Level Estimated
Sun 11:36:00 PM 20.2995 -94.0722 80° East  Level Estimated
Sun 11:37:00 PM 20.3487 -93.7579 80° East  Level Estimated
Sun 11:38:00 PM 20.3974 -93.4434 81° East  Level Estimated
Sun 11:39:00 PM 20.4456 -93.1288 81° East  Level Estimated
Sun 11:40:00 PM 20.4931 -92.8139 81° East  Level Estimated
Sun 11:41:00 PM 20.5401 -92.4988 81° East  Level Estimated
Sun 11:42:00 PM 20.5866 -92.1836 81° East  Level Estimated
Sun 11:43:00 PM 20.6324 -91.8681 81° East  Level Estimated
Sun 11:44:00 PM 20.6777 -91.5525 81° East  Level Estimated
Sun 11:45:00 PM 20.7225 -91.2367 81° East  Level Estimated
Sun 11:46:00 PM 20.7666 -90.9207 81° East  Level Estimated
Sun 11:47:00 PM 20.8102 -90.6045 82° East  Level Estimated
Sun 11:48:00 PM 20.8531 -90.2881 82° East  Level Estimated
Sun 11:49:00 PM 20.8955 -89.9716 82° East  Level Estimated
Sun 11:50:00 PM 20.9370 -89.6577 82° East  Level Estimated
Sun 11:51:00 PM 20.9370 -89.6577 298° West  Level Estimated
Sun 11:52:00 PM 20.9370 -89.6577 298° West  Level Estimated
Sun 11:53:00 PM 20.9370 -89.6577 298° West  Level Estimated
Sun 11:54:00 PM 20.9370 -89.6577 298° West  Level Estimated
Sun 11:55:00 PM 20.9370 -89.6577 298° West  Level Estimated
Sun 11:56:00 PM 20.9370 -89.6577 298° West  Level Estimated
Sun 11:57:00 PM 20.9370 -89.6577 298° West  Level Estimated
Sun 11:58:00 PM 20.9370 -89.6577 298° West  Level Estimated
Sun 11:59:00 PM 20.9370 -89.6577 298° West  Level Estimated
Mon 12:00:00 AM 20.9370 -89.6577 298° West  Level Estimated
Mon 12:01:00 AM 20.9370 -89.6577 298° West  Level Estimated
Mon 12:02:00 AM 20.9370 -89.6577 298° West  Level Estimated
Mon 12:03:00 AM 20.9370 -89.6577 298° West  Level Estimated
Mon 12:04:00 AM 20.9370 -89.6577 298° West  Level Estimated
Mon 12:05:00 AM 20.9370 -89.6577 298° West  Level Estimated
Mon 12:06:00 AM 20.9370 -89.6577 298° West  Level Estimated

Login

Don't have an account? Register now (free) for customized features, flight alerts, and more!